createdAt,value
2018-02-07T00:00:00.463Z,30.00
2018-02-07T00:02:27.421Z,30.00
2018-02-07T00:04:54.362Z,30.00
2018-02-07T00:07:22.052Z,30.00
2018-02-07T00:09:48.996Z,30.00
2018-02-07T00:12:15.951Z,30.00
2018-02-07T00:14:42.884Z,30.00
2018-02-07T00:17:09.831Z,30.00
2018-02-07T00:19:37.536Z,30.00
2018-02-07T00:22:04.488Z,30.00
2018-02-07T00:24:31.448Z,30.00
2018-02-07T00:26:59.151Z,29.90
2018-02-07T00:29:26.476Z,29.90
2018-02-07T00:31:53.408Z,30.00
2018-02-07T00:34:20.352Z,30.00
2018-02-07T00:36:47.299Z,30.00
2018-02-07T00:39:14.230Z,30.00
2018-02-07T00:41:41.610Z,29.90
2018-02-07T00:44:09.080Z,29.90
2018-02-07T00:46:36.100Z,29.90
2018-02-07T00:49:03.816Z,29.90
2018-02-07T00:51:30.779Z,29.90
2018-02-07T00:53:57.761Z,29.90
2018-02-07T00:56:25.494Z,29.90
2018-02-07T00:58:54.503Z,29.90
2018-02-07T01:01:21.633Z,29.80
2018-02-07T01:03:48.537Z,29.80
2018-02-07T01:06:16.297Z,29.90
2018-02-07T01:08:44.020Z,29.90
2018-02-07T01:11:10.982Z,29.90
2018-02-07T01:13:37.929Z,29.90
2018-02-07T01:16:04.869Z,29.90
2018-02-07T01:18:31.833Z,29.90
2018-02-07T01:20:58.796Z,29.90
2018-02-07T01:23:25.736Z,29.90
2018-02-07T01:25:52.664Z,29.90
2018-02-07T01:28:19.602Z,29.90
2018-02-07T01:30:46.538Z,29.80
2018-02-07T01:33:13.486Z,29.80
2018-02-07T01:35:40.421Z,29.80
2018-02-07T01:38:08.116Z,29.90
2018-02-07T01:40:35.777Z,29.80
2018-02-07T01:43:02.705Z,29.80
2018-02-07T01:45:30.400Z,29.80
2018-02-07T01:47:58.105Z,29.80
2018-02-07T01:50:25.045Z,29.80
2018-02-07T01:52:52.016Z,29.80
2018-02-07T01:55:18.968Z,29.80
2018-02-07T01:57:45.908Z,29.80
2018-02-07T02:00:12.890Z,29.80
2018-02-07T02:02:39.836Z,29.80
2018-02-07T02:05:06.780Z,29.80
2018-02-07T02:07:33.736Z,30.20
2018-02-07T02:10:00.685Z,29.70
2018-02-07T02:12:27.650Z,29.80
2018-02-07T02:14:55.353Z,29.70
2018-02-07T02:17:22.303Z,29.60
2018-02-07T02:19:49.232Z,29.70
2018-02-07T02:22:16.180Z,29.80
2018-02-07T02:24:43.127Z,29.70
2018-02-07T02:27:11.705Z,29.70
2018-02-07T02:29:39.413Z,29.60
2018-02-07T02:32:06.371Z,29.70
2018-02-07T02:34:33.308Z,29.70
2018-02-07T02:37:00.257Z,29.70
2018-02-07T02:39:27.264Z,29.70
2018-02-07T02:41:54.201Z,29.70
2018-02-07T02:44:21.140Z,29.60
2018-02-07T02:46:48.131Z,29.70
2018-02-07T02:49:15.841Z,29.70
2018-02-07T02:51:42.809Z,29.70
2018-02-07T02:54:09.742Z,29.60
2018-02-07T02:56:36.693Z,29.70
2018-02-07T02:59:03.637Z,29.70
2018-02-07T03:01:30.586Z,29.70
2018-02-07T03:03:57.914Z,29.70
2018-02-07T03:06:25.616Z,29.80
2018-02-07T03:08:52.562Z,29.80
2018-02-07T03:11:19.509Z,29.80
2018-02-07T03:13:46.454Z,29.90
2018-02-07T03:16:13.416Z,29.80
2018-02-07T03:18:40.365Z,29.80
2018-02-07T03:21:07.328Z,29.90
2018-02-07T03:23:34.271Z,29.90
2018-02-07T03:26:01.213Z,29.90
2018-02-07T03:28:28.173Z,29.80
2018-02-07T03:30:55.115Z,29.90
2018-02-07T03:33:22.048Z,29.90
2018-02-07T03:35:48.992Z,29.90
2018-02-07T03:38:16.743Z,29.80
2018-02-07T03:40:43.697Z,29.80
2018-02-07T03:43:11.406Z,29.80
2018-02-07T03:45:38.349Z,29.90
2018-02-07T03:48:05.342Z,29.80
2018-02-07T03:50:32.301Z,29.80
2018-02-07T03:52:59.244Z,29.80
2018-02-07T03:55:26.188Z,29.80
2018-02-07T03:57:53.164Z,29.90
2018-02-07T04:00:20.098Z,29.80
2018-02-07T04:02:47.377Z,29.90
2018-02-07T04:05:15.089Z,30.10
2018-02-07T04:07:42.041Z,29.80
2018-02-07T04:15:18.449Z,29.80
2018-02-07T04:17:45.401Z,29.80
2018-02-07T04:20:12.345Z,29.80
2018-02-07T04:22:39.297Z,29.80
2018-02-07T04:25:06.232Z,29.80
2018-02-07T04:27:33.186Z,29.80
2018-02-07T04:30:00.121Z,29.80
2018-02-07T04:32:27.891Z,29.70
2018-02-07T04:34:55.615Z,29.90
2018-02-07T04:37:22.581Z,29.80
2018-02-07T04:39:49.521Z,29.80
2018-02-07T04:42:16.468Z,29.70
2018-02-07T04:44:43.428Z,29.70
2018-02-07T04:47:10.369Z,29.70
2018-02-07T04:49:37.319Z,29.50
2018-02-07T04:52:04.276Z,29.50
2018-02-07T04:54:31.270Z,29.60
2018-02-07T04:56:58.186Z,29.60
2018-02-07T04:59:25.118Z,29.70
2018-02-07T05:01:52.093Z,29.80
2018-02-07T05:04:19.038Z,29.70
2018-02-07T05:06:45.981Z,29.80
2018-02-07T05:09:12.924Z,29.80
2018-02-07T05:11:39.873Z,29.80
2018-02-07T05:14:06.821Z,29.80
2018-02-07T05:16:33.769Z,29.80
2018-02-07T05:19:01.021Z,29.80
2018-02-07T05:21:27.980Z,29.80
2018-02-07T05:23:54.911Z,29.80
2018-02-07T05:26:21.888Z,29.80
2018-02-07T05:28:48.827Z,29.80
2018-02-07T05:31:15.767Z,29.70
2018-02-07T05:33:47.848Z,29.70
2018-02-07T05:36:14.820Z,30.40
2018-02-07T05:38:41.761Z,30.00
2018-02-07T05:41:08.708Z,30.10
2018-02-07T05:43:35.688Z,30.20
2018-02-07T05:46:04.476Z,30.20
2018-02-07T05:48:32.220Z,30.40
2018-02-07T05:50:59.164Z,30.20
2018-02-07T05:53:26.105Z,30.30
2018-02-07T05:55:53.067Z,30.20
2018-02-07T05:58:20.018Z,30.00
2018-02-07T06:00:47.603Z,30.00
2018-02-07T06:03:14.527Z,30.00
2018-02-07T06:05:41.510Z,29.90
2018-02-07T06:08:09.217Z,29.90
2018-02-07T06:10:36.174Z,29.90
2018-02-07T06:13:03.125Z,29.90
2018-02-07T06:15:30.102Z,29.90
2018-02-07T06:17:57.229Z,29.90
2018-02-07T06:20:24.180Z,30.00
2018-02-07T06:22:51.128Z,29.90
2018-02-07T06:25:18.068Z,29.90
2018-02-07T06:27:45.005Z,30.00
2018-02-07T06:30:12.764Z,29.90
2018-02-07T06:32:40.472Z,30.00
2018-02-07T06:35:07.420Z,30.00
2018-02-07T06:37:34.374Z,30.00
2018-02-07T06:40:01.303Z,30.00
2018-02-07T06:42:28.264Z,30.00
2018-02-07T06:44:55.216Z,29.90
2018-02-07T06:47:22.152Z,29.90
2018-02-07T06:49:49.090Z,29.90
2018-02-07T06:52:16.052Z,29.90
2018-02-07T06:54:43.700Z,29.90
2018-02-07T06:57:11.401Z,29.90
2018-02-07T06:59:38.387Z,29.80
2018-02-07T07:02:05.316Z,29.90
2018-02-07T07:04:32.269Z,29.80
2018-02-07T07:06:59.208Z,29.80
2018-02-07T07:09:26.153Z,29.80
2018-02-07T07:11:53.098Z,29.80
2018-02-07T07:14:20.055Z,29.80
2018-02-07T07:16:46.984Z,29.70
2018-02-07T07:19:13.936Z,29.70
2018-02-07T07:21:40.872Z,29.70
2018-02-07T07:24:08.604Z,29.70
2018-02-07T07:26:35.546Z,29.70
2018-02-07T07:29:02.494Z,29.70
2018-02-07T07:31:29.456Z,29.70
2018-02-07T07:33:56.404Z,29.70
2018-02-07T07:36:23.382Z,29.70
2018-02-07T07:38:50.325Z,29.60
2018-02-07T07:41:17.280Z,29.30
2018-02-07T07:43:44.221Z,29.70
2018-02-07T07:46:11.157Z,29.70
2018-02-07T07:48:38.108Z,29.70
2018-02-07T07:51:05.045Z,29.70
2018-02-07T07:53:31.996Z,29.70
2018-02-07T07:55:58.932Z,29.70
2018-02-07T07:58:25.886Z,29.60
2018-02-07T08:00:52.813Z,29.60
2018-02-07T08:03:20.288Z,29.70
2018-02-07T08:05:47.228Z,29.70
2018-02-07T08:08:14.170Z,29.70
2018-02-07T08:10:41.881Z,29.70
2018-02-07T08:13:08.828Z,29.70
2018-02-07T08:15:35.804Z,29.70
2018-02-07T08:18:02.756Z,29.70
2018-02-07T08:20:29.720Z,29.70
2018-02-07T08:22:56.658Z,29.80
2018-02-07T08:25:23.616Z,29.60
2018-02-07T08:27:50.556Z,29.80
2018-02-07T08:30:17.524Z,29.80
2018-02-07T08:32:44.444Z,29.80
2018-02-07T08:35:11.381Z,29.70
2018-02-07T08:37:38.321Z,29.80
2018-02-07T08:40:05.247Z,29.80
2018-02-07T08:42:32.965Z,29.80
2018-02-07T08:44:59.924Z,29.80
2018-02-07T08:47:26.881Z,29.80
2018-02-07T08:49:53.823Z,29.80
2018-02-07T08:52:20.765Z,29.80
2018-02-07T08:54:47.718Z,29.80
2018-02-07T08:57:14.664Z,29.80
2018-02-07T08:59:41.617Z,29.90
2018-02-07T09:02:08.570Z,30.00
2018-02-07T09:04:35.536Z,30.00
2018-02-07T09:07:02.485Z,30.00
2018-02-07T09:09:29.449Z,30.00
2018-02-07T09:11:56.358Z,30.00
2018-02-07T09:14:23.328Z,30.00
2018-02-07T09:16:50.272Z,29.90
2018-02-07T09:19:17.215Z,29.90
2018-02-07T09:21:44.155Z,29.80
2018-02-07T09:24:11.121Z,29.80
2018-02-07T09:26:38.061Z,29.70
2018-02-07T09:29:05.009Z,29.70
2018-02-07T09:31:31.949Z,29.70
2018-02-07T09:33:58.896Z,29.60
2018-02-07T09:36:25.838Z,29.60
2018-02-07T09:38:52.777Z,29.60
2018-02-07T09:41:19.720Z,29.60
2018-02-07T09:43:47.436Z,29.50
2018-02-07T09:46:14.365Z,29.50
2018-02-07T09:48:41.313Z,29.50
2018-02-07T09:51:08.277Z,29.50
2018-02-07T09:53:35.225Z,29.50
2018-02-07T09:56:02.176Z,30.00
2018-02-07T09:58:29.127Z,29.50
2018-02-07T10:00:56.248Z,29.50
2018-02-07T10:03:23.966Z,29.50
2018-02-07T10:05:50.914Z,29.50
2018-02-07T10:08:17.841Z,29.50
2018-02-07T10:10:44.785Z,29.50
2018-02-07T10:13:11.726Z,29.50
2018-02-07T10:15:38.679Z,29.50
2018-02-07T10:18:05.639Z,29.50
2018-02-07T10:20:32.568Z,29.50
2018-02-07T10:22:59.534Z,29.50
2018-02-07T10:25:27.321Z,29.50
2018-02-07T10:27:55.021Z,29.50
2018-02-07T10:30:21.958Z,29.50
2018-02-07T10:32:48.912Z,29.60
2018-02-07T10:35:16.162Z,29.60
2018-02-07T10:37:43.151Z,29.50
2018-02-07T10:40:10.089Z,29.50
2018-02-07T10:42:37.032Z,29.50
2018-02-07T10:45:03.986Z,29.60
2018-02-07T10:47:30.932Z,29.60
2018-02-07T10:49:57.873Z,29.60
2018-02-07T10:52:24.843Z,29.60
2018-02-07T10:54:52.193Z,29.60
2018-02-07T10:57:19.140Z,29.60
2018-02-07T10:59:46.093Z,29.60
2018-02-07T11:02:13.036Z,29.60
2018-02-07T11:04:39.995Z,29.60
2018-02-07T11:07:06.956Z,29.60
2018-02-07T11:09:33.905Z,29.60
2018-02-07T11:12:00.844Z,30.10
2018-02-07T11:14:27.805Z,29.70
2018-02-07T11:16:54.742Z,29.70
2018-02-07T11:19:21.684Z,29.60
2018-02-07T11:21:48.621Z,29.60
2018-02-07T11:24:15.566Z,29.70
2018-02-07T11:26:42.542Z,29.70
2018-02-07T11:29:09.491Z,29.60
2018-02-07T11:31:36.428Z,29.60
2018-02-07T11:34:03.364Z,29.70
2018-02-07T11:36:30.336Z,29.60
2018-02-07T11:38:57.272Z,29.60
2018-02-07T11:41:24.990Z,29.80
2018-02-07T11:43:51.935Z,29.70
2018-02-07T11:46:18.876Z,29.80
2018-02-07T11:48:50.670Z,29.90
2018-02-07T11:58:56.848Z,30.40
2018-02-07T12:01:23.796Z,30.40
2018-02-07T12:03:50.777Z,30.30
2018-02-07T12:06:18.489Z,31.00
2018-02-07T12:08:45.440Z,30.60
2018-02-07T12:11:13.163Z,30.70
2018-02-07T12:13:40.116Z,30.70
2018-02-07T12:16:07.045Z,30.70
2018-02-07T12:18:33.997Z,30.70
2018-02-07T12:21:00.961Z,30.70
2018-02-07T12:23:27.908Z,30.80
2018-02-07T12:25:54.862Z,30.90
2018-02-07T12:28:21.802Z,30.80
2018-02-07T12:30:48.751Z,30.90
2018-02-07T12:33:16.128Z,30.90
2018-02-07T12:35:43.069Z,30.90
2018-02-07T12:38:10.035Z,30.90
2018-02-07T12:40:36.984Z,30.50
2018-02-07T12:43:04.733Z,29.90
2018-02-07T12:45:32.553Z,29.80
2018-02-07T12:47:59.513Z,30.00
2018-02-07T12:50:27.225Z,29.60
2018-02-07T12:52:54.162Z,29.60
2018-02-07T12:55:21.125Z,29.50
2018-02-07T12:57:48.064Z,29.50
2018-02-07T13:00:15.005Z,29.50
2018-02-07T13:02:41.963Z,29.40
2018-02-07T13:05:08.909Z,29.40
2018-02-07T13:07:35.844Z,29.50
2018-02-07T13:10:02.792Z,29.40
2018-02-07T13:12:29.725Z,29.50
2018-02-07T13:14:56.663Z,29.50
2018-02-07T13:17:23.614Z,29.50
2018-02-07T13:19:50.556Z,29.50
2018-02-07T13:22:17.495Z,29.60
2018-02-07T13:24:45.216Z,29.60
2018-02-07T13:27:13.895Z,29.60
2018-02-07T13:29:40.845Z,29.60
2018-02-07T13:32:07.780Z,29.60
2018-02-07T13:34:34.980Z,29.70
2018-02-07T13:37:01.965Z,29.70
2018-02-07T13:39:29.706Z,29.70
2018-02-07T13:41:56.653Z,29.70
2018-02-07T13:44:23.649Z,29.80
2018-02-07T13:46:50.589Z,30.00
2018-02-07T13:49:18.316Z,30.50
2018-02-07T13:51:45.276Z,30.50
2018-02-07T13:54:12.217Z,30.70
2018-02-07T13:56:39.177Z,31.00
2018-02-07T13:59:06.091Z,31.40
2018-02-07T14:01:33.061Z,31.70
2018-02-07T14:03:59.989Z,31.90
2018-02-07T14:06:26.938Z,32.00
2018-02-07T14:08:53.911Z,32.20
2018-02-07T14:11:20.870Z,32.50
2018-02-07T14:13:47.853Z,32.60
2018-02-07T14:16:15.564Z,32.70
2018-02-07T14:18:42.513Z,32.80
2018-02-07T14:21:09.468Z,32.70
2018-02-07T14:23:36.420Z,32.60
2018-02-07T14:26:03.405Z,32.60
2018-02-07T14:28:30.353Z,32.50
2018-02-07T14:30:57.304Z,32.20
2018-02-07T14:33:24.269Z,31.90
2018-02-07T14:35:51.223Z,31.80
2018-02-07T14:38:18.944Z,31.50
2018-02-07T14:40:45.874Z,31.50
2018-02-07T14:43:12.820Z,31.30
2018-02-07T14:45:39.761Z,31.20
2018-02-07T14:48:06.700Z,31.10
2018-02-07T14:50:34.406Z,31.20
2018-02-07T14:53:01.341Z,31.10
2018-02-07T14:55:28.280Z,31.10
2018-02-07T14:57:55.265Z,31.10
2018-02-07T15:00:22.221Z,31.20
2018-02-07T15:02:49.189Z,31.10
2018-02-07T15:05:16.139Z,31.20
2018-02-07T15:07:43.112Z,31.20
2018-02-07T15:12:42.744Z,31.40
2018-02-07T15:15:09.682Z,31.30
2018-02-07T15:17:36.626Z,31.30
2018-02-07T15:20:03.594Z,31.40
2018-02-07T15:22:30.539Z,31.00
2018-02-07T15:24:57.492Z,31.10
2018-02-07T15:27:24.440Z,31.40
2018-02-07T15:29:51.388Z,31.30
2018-02-07T15:32:18.355Z,31.40
2018-02-07T15:34:45.308Z,31.30
2018-02-07T15:37:13.044Z,31.40
2018-02-07T15:51:43.385Z,29.90
2018-02-07T15:54:10.332Z,30.20
2018-02-07T15:56:37.282Z,30.70
2018-02-07T15:59:04.212Z,30.90
2018-02-07T16:04:03.450Z,31.10
2018-02-07T16:06:30.383Z,31.50
2018-02-07T16:08:57.369Z,30.80
2018-02-07T16:11:24.312Z,30.90
2018-02-07T16:13:51.270Z,30.70
2018-02-07T16:16:18.216Z,30.40
2018-02-07T16:18:45.161Z,30.60
2018-02-07T16:21:12.100Z,30.80
2018-02-07T16:23:39.038Z,30.80
2018-02-07T16:26:07.068Z,30.80
2018-02-07T16:28:34.804Z,30.80
2018-02-07T16:31:01.748Z,30.80
2018-02-07T16:33:29.448Z,30.80
2018-02-07T16:35:57.176Z,31.30
2018-02-07T16:38:24.116Z,30.80
2018-02-07T16:40:51.047Z,31.00
2018-02-07T16:43:17.993Z,30.80
2018-02-07T16:45:49.840Z,30.80
2018-02-07T16:48:17.559Z,31.00
2018-02-07T16:50:44.496Z,30.90
2018-02-07T16:53:11.426Z,30.80
2018-02-07T16:55:38.361Z,30.80
2018-02-07T16:58:06.091Z,29.50
2018-02-07T17:00:33.057Z,29.40
2018-02-07T17:02:59.988Z,29.70
2018-02-07T17:05:26.944Z,29.80
2018-02-07T17:07:53.880Z,29.70
2018-02-07T17:10:20.843Z,29.70
2018-02-07T17:12:47.786Z,29.80
2018-02-07T17:15:14.712Z,29.80
2018-02-07T17:17:41.647Z,29.80
2018-02-07T17:20:08.604Z,29.70
2018-02-07T17:22:35.576Z,29.90
2018-02-07T17:25:02.529Z,29.80
2018-02-07T17:27:29.466Z,29.80
2018-02-07T17:29:56.406Z,29.90
2018-02-07T17:32:23.351Z,29.90
2018-02-07T17:34:53.810Z,29.90
2018-02-07T17:37:20.751Z,30.00
2018-02-07T17:39:47.705Z,30.00
2018-02-07T17:42:14.649Z,30.10
2018-02-07T17:44:41.609Z,30.10
2018-02-07T17:47:08.555Z,30.20
2018-02-07T17:49:35.507Z,30.20
2018-02-07T17:52:02.443Z,30.20
2018-02-07T17:54:29.392Z,30.20
2018-02-07T17:56:56.348Z,30.20
2018-02-07T17:59:23.293Z,30.20
2018-02-07T18:01:50.580Z,30.30
2018-02-07T18:04:17.492Z,30.30
2018-02-07T18:06:44.452Z,30.40
2018-02-07T18:09:11.396Z,30.60
2018-02-07T18:11:38.361Z,30.70
2018-02-07T18:14:05.300Z,30.00
2018-02-07T18:16:32.247Z,30.60
2018-02-07T18:18:59.180Z,30.80
2018-02-07T18:21:26.892Z,30.70
2018-02-07T18:23:53.841Z,30.70
2018-02-07T18:26:20.780Z,30.70
2018-02-07T18:28:47.716Z,30.70
2018-02-07T18:31:15.068Z,30.80
2018-02-07T18:33:42.024Z,30.80
2018-02-07T18:36:08.965Z,30.90
2018-02-07T18:38:36.672Z,31.00
2018-02-07T18:46:10.451Z,31.10
2018-02-07T18:48:37.405Z,31.20
2018-02-07T18:51:04.337Z,31.20
2018-02-07T18:53:31.280Z,30.80
2018-02-07T18:55:58.227Z,30.00
2018-02-07T18:58:25.171Z,29.20
2018-02-07T19:00:52.104Z,28.40
2018-02-07T19:03:19.049Z,27.80
2018-02-07T19:05:46.001Z,27.30
2018-02-07T19:08:12.940Z,26.90
2018-02-07T19:10:39.892Z,26.60
2018-02-07T19:13:06.838Z,26.50
2018-02-07T19:15:34.592Z,27.60
2018-02-07T19:18:03.400Z,27.50
2018-02-07T19:20:30.345Z,27.50
2018-02-07T19:22:58.048Z,27.70
2018-02-07T19:25:24.987Z,27.70
2018-02-07T19:27:51.934Z,27.70
2018-02-07T19:30:18.892Z,27.70
2018-02-07T19:32:45.837Z,27.90
2018-02-07T19:35:12.772Z,27.90
2018-02-07T19:37:39.712Z,27.90
2018-02-07T19:40:07.423Z,27.90
2018-02-07T19:42:36.372Z,27.80
2018-02-07T19:45:04.105Z,28.10
2018-02-07T19:47:31.056Z,28.10
2018-02-07T19:49:58.849Z,28.10
2018-02-07T19:52:25.761Z,28.30
2018-02-07T19:54:52.695Z,28.30
2018-02-07T19:57:19.721Z,28.30
2018-02-07T19:59:47.431Z,28.30
2018-02-07T20:02:14.367Z,28.40
2018-02-07T20:04:41.316Z,28.40
2018-02-07T20:07:08.293Z,28.40
2018-02-07T20:09:35.228Z,28.40
2018-02-07T20:12:02.172Z,28.40
2018-02-07T20:14:29.108Z,28.40
2018-02-07T20:16:56.065Z,28.50
2018-02-07T20:19:23.006Z,28.50
2018-02-07T20:21:49.941Z,28.50
2018-02-07T20:24:17.651Z,28.60
2018-02-07T20:26:44.595Z,28.60
2018-02-07T20:29:12.636Z,28.60
2018-02-07T20:31:40.358Z,28.60
2018-02-07T20:34:07.283Z,28.60
2018-02-07T20:36:34.232Z,28.60
2018-02-07T20:39:02.820Z,28.60
2018-02-07T20:41:29.759Z,28.60
2018-02-07T20:43:56.695Z,28.60
2018-02-07T20:46:23.661Z,28.60
2018-02-07T20:48:50.592Z,28.60
2018-02-07T20:51:19.300Z,28.70
2018-02-07T20:53:46.240Z,28.60
2018-02-07T20:56:13.185Z,28.70
2018-02-07T20:58:40.384Z,28.70
2018-02-07T21:01:07.327Z,28.80
2018-02-07T21:03:34.264Z,28.80
2018-02-07T21:06:01.306Z,28.70
2018-02-07T21:08:28.247Z,28.70
2018-02-07T21:10:55.281Z,28.80
2018-02-07T21:13:22.226Z,28.80
2018-02-07T21:15:49.156Z,28.80
2018-02-07T21:18:16.088Z,28.80
2018-02-07T21:20:43.064Z,28.70
2018-02-07T21:23:10.006Z,28.80
2018-02-07T21:25:36.943Z,28.80
2018-02-07T21:28:03.879Z,28.80
2018-02-07T21:30:30.811Z,28.70
2018-02-07T21:32:57.748Z,28.70
2018-02-07T21:35:27.548Z,28.70
2018-02-07T21:37:54.480Z,28.70
2018-02-07T21:40:21.444Z,28.70
2018-02-07T21:42:48.388Z,28.70
2018-02-07T21:45:15.344Z,29.00
2018-02-07T21:47:42.310Z,28.70
2018-02-07T21:50:10.361Z,28.80
2018-02-07T21:52:37.337Z,28.80
2018-02-07T21:55:05.044Z,28.80
2018-02-07T21:57:32.005Z,28.70
2018-02-07T21:59:58.920Z,28.70
2018-02-07T22:02:26.642Z,28.70
2018-02-07T22:04:53.600Z,28.70
2018-02-07T22:07:20.563Z,28.60
2018-02-07T22:09:47.907Z,28.50
2018-02-07T22:12:14.847Z,28.50
2018-02-07T22:14:41.785Z,28.40
2018-02-07T22:17:09.492Z,29.00
2018-02-07T22:19:36.432Z,28.40
2018-02-07T22:22:03.368Z,28.40
2018-02-07T22:24:31.368Z,28.40
2018-02-07T22:26:58.312Z,28.40
2018-02-07T22:32:00.212Z,28.40
2018-02-07T22:34:27.909Z,28.40
2018-02-07T22:36:54.839Z,28.40
2018-02-07T22:39:22.179Z,28.40
2018-02-07T22:41:49.107Z,28.40
2018-02-07T22:44:16.051Z,29.00
2018-02-07T22:46:42.987Z,28.40
2018-02-07T22:49:09.928Z,28.40
2018-02-07T22:51:36.864Z,28.40
2018-02-07T22:54:03.841Z,28.40
2018-02-07T22:56:31.540Z,28.90
2018-02-07T22:58:58.567Z,28.40
2018-02-07T23:01:25.531Z,28.40
2018-02-07T23:03:52.440Z,28.40
2018-02-07T23:06:19.389Z,28.40
2018-02-07T23:08:46.381Z,28.30
2018-02-07T23:11:14.081Z,28.30
2018-02-07T23:13:40.981Z,28.30
2018-02-07T23:16:08.705Z,28.20
2018-02-07T23:18:36.403Z,28.20
2018-02-07T23:21:03.359Z,28.20
2018-02-07T23:23:30.292Z,28.20
2018-02-07T23:25:57.240Z,28.20
2018-02-07T23:28:24.173Z,28.20
2018-02-07T23:30:51.881Z,28.10
2018-02-07T23:33:18.824Z,28.10
2018-02-07T23:35:45.772Z,28.10
2018-02-07T23:38:12.709Z,28.00
2018-02-07T23:40:39.653Z,28.00
2018-02-07T23:43:07.360Z,28.00
2018-02-07T23:45:34.304Z,28.00
2018-02-07T23:48:01.245Z,28.00
2018-02-07T23:50:28.207Z,28.00
2018-02-07T23:52:55.152Z,27.90
2018-02-07T23:55:22.104Z,27.90
2018-02-07T23:57:49.040Z,27.90
